This is the latest recevied weather packets stored in our database for station/object N6SPP. If no packets are shown the sender has not sent any weather packets the latest 10 day(s).
| Time | Temp. | Humidity | Pressure | Rain* | Wind** | Luminosity | Snow |
|---|---|---|---|---|---|---|---|
| 1777560595 | 17.78° C | 58% | 1016 hPa | 0 mm | - | 147 W/m² | - |
| 1777560293 | 17.22° C | 60% | 1016.3 hPa | 0 mm | - | 134 W/m² | - |
| 1777559990 | 16.67° C | 62% | 1016.4 hPa | 0 mm | - | 121 W/m² | - |
| 1777559685 | 16.67° C | 63% | 1016.3 hPa | 0 mm | - | 108 W/m² | - |
| 1777559383 | 16.11° C | 63% | 1016.4 hPa | 0 mm | - | 95 W/m² | - |
| 1777559079 | 16.11° C | 65% | 1016.1 hPa | 0 mm | - | 85 W/m² | - |
| 1777558774 | 15.56° C | 65% | 1016.1 hPa | 0 mm | - | 73 W/m² | - |
| 1777558470 | 15° C | 68% | 1016.1 hPa | 0 mm | - | 64 W/m² | - |
| 1777558167 | 15° C | 67% | 1016.1 hPa | 0 mm | - | 55 W/m² | - |
| 1777557863 | 14.44° C | 69% | 1016.1 hPa | 0 mm | - | 47 W/m² | - |
| 1777557560 | 14.44° C | 69% | 1016.1 hPa | 0 mm | - | 40 W/m² | - |
| 1777557256 | 13.89° C | 71% | 1016 hPa | 0 mm | - | 34 W/m² | - |
| 1777556952 | 13.33° C | 73% | 1016.2 hPa | 0 mm | - | 29 W/m² | - |
| 1777556648 | 12.78° C | 73% | 1016.3 hPa | 0 mm | - | 25 W/m² | - |
| 1777556344 | 12.78° C | 74% | 1016.3 hPa | 0 mm | - | 21 W/m² | - |
| 1777556039 | 12.78° C | 73% | 1016.1 hPa | 0 mm | - | 16 W/m² | - |
| 1777555734 | 12.78° C | 73% | 1016.4 hPa | 0 mm | - | 13 W/m² | - |
| 1777555431 | 12.78° C | 72% | 1016 hPa | 0 mm | - | 9 W/m² | - |
| 1777555127 | 13.33° C | 72% | 1016.1 hPa | 0 mm | - | 6 W/m² | - |
| 1777554825 | 13.33° C | 70% | 1016.1 hPa | 0 mm | - | 4 W/m² | - |
| 1777554521 | 13.89° C | 68% | 1016.1 hPa | 0 mm | - | 2 W/m² | - |
| 1777554218 | 13.89° C | 66% | 1016.2 hPa | 0 mm | - | 1 W/m² | - |
| 1777553915 | 14.44° C | 63% | 1016.2 hPa | 0 mm | - | 0 W/m² | - |
| 1777553611 | 15.56° C | 57% | 1015.9 hPa | 0 mm | - | 0 W/m² | - |
| 1777553308 | 15.56° C | 57% | 1016 hPa | 0 mm | - | 0 W/m² | - |
* Rain latest hour (hover to see other rain measurements)
** Current wind speed in m/s (hover to see current wind gust speed)